sensor_id;sensor_type;location;lat;lon;timestamp;P1;durP1;ratioP1;P2;durP2;ratioP2
21175;SDS011;10746;50.178;8.186;2022-10-18T00:01:09;9.35;;;5.28;;
21175;SDS011;10746;50.178;8.186;2022-10-18T00:03:36;10.90;;;5.22;;
21175;SDS011;10746;50.178;8.186;2022-10-18T00:06:04;13.68;;;5.10;;
21175;SDS011;10746;50.178;8.186;2022-10-18T00:08:34;10.88;;;4.75;;
21175;SDS011;10746;50.178;8.186;2022-10-18T00:11:01;14.05;;;5.45;;
21175;SDS011;10746;50.178;8.186;2022-10-18T00:13:28;8.20;;;4.93;;
21175;SDS011;10746;50.178;8.186;2022-10-18T00:15:56;16.13;;;5.72;;
21175;SDS011;10746;50.178;8.186;2022-10-18T00:18:24;13.38;;;5.72;;
21175;SDS011;10746;50.178;8.186;2022-10-18T00:20:58;14.23;;;6.25;;
21175;SDS011;10746;50.178;8.186;2022-10-18T00:23:26;11.85;;;5.82;;
21175;SDS011;10746;50.178;8.186;2022-10-18T00:25:59;16.10;;;6.57;;
21175;SDS011;10746;50.178;8.186;2022-10-18T00:28:27;14.02;;;5.78;;
21175;SDS011;10746;50.178;8.186;2022-10-18T00:30:54;10.40;;;6.28;;
21175;SDS011;10746;50.178;8.186;2022-10-18T00:33:21;12.07;;;6.53;;
21175;SDS011;10746;50.178;8.186;2022-10-18T00:35:48;11.73;;;6.80;;
21175;SDS011;10746;50.178;8.186;2022-10-18T00:38:15;12.52;;;6.43;;
21175;SDS011;10746;50.178;8.186;2022-10-18T00:40:41;13.95;;;6.00;;
21175;SDS011;10746;50.178;8.186;2022-10-18T00:43:10;15.27;;;7.03;;
21175;SDS011;10746;50.178;8.186;2022-10-18T00:45:41;16.25;;;6.60;;
21175;SDS011;10746;50.178;8.186;2022-10-18T00:48:07;11.00;;;6.45;;
21175;SDS011;10746;50.178;8.186;2022-10-18T00:50:35;17.08;;;6.72;;
21175;SDS011;10746;50.178;8.186;2022-10-18T00:53:03;11.35;;;6.03;;
21175;SDS011;10746;50.178;8.186;2022-10-18T00:55:34;12.70;;;6.07;;
21175;SDS011;10746;50.178;8.186;2022-10-18T00:58:01;11.73;;;6.05;;
21175;SDS011;10746;50.178;8.186;2022-10-18T01:00:30;9.50;;;6.00;;
21175;SDS011;10746;50.178;8.186;2022-10-18T01:02:58;12.88;;;6.10;;
21175;SDS011;10746;50.178;8.186;2022-10-18T01:05:25;11.65;;;6.32;;
21175;SDS011;10746;50.178;8.186;2022-10-18T01:08:00;13.25;;;6.13;;
21175;SDS011;10746;50.178;8.186;2022-10-18T01:10:48;17.13;;;7.03;;
21175;SDS011;10746;50.178;8.186;2022-10-18T01:13:28;23.73;;;7.10;;
21175;SDS011;10746;50.178;8.186;2022-10-18T01:16:05;19.02;;;7.25;;
21175;SDS011;10746;50.178;8.186;2022-10-18T01:18:40;14.80;;;6.70;;
21175;SDS011;10746;50.178;8.186;2022-10-18T01:21:16;13.45;;;7.00;;
21175;SDS011;10746;50.178;8.186;2022-10-18T01:27:00;18.90;;;6.90;;
21175;SDS011;10746;50.178;8.186;2022-10-18T01:29:50;12.40;;;6.72;;
21175;SDS011;10746;50.178;8.186;2022-10-18T01:32:30;15.15;;;7.10;;
21175;SDS011;10746;50.178;8.186;2022-10-18T01:35:02;21.73;;;7.65;;
21175;SDS011;10746;50.178;8.186;2022-10-18T01:37:32;18.00;;;7.63;;
21175;SDS011;10746;50.178;8.186;2022-10-18T01:40:01;12.75;;;7.18;;
21175;SDS011;10746;50.178;8.186;2022-10-18T01:42:31;16.83;;;8.18;;
21175;SDS011;10746;50.178;8.186;2022-10-18T01:44:58;14.35;;;7.72;;
21175;SDS011;10746;50.178;8.186;2022-10-18T01:47:26;11.00;;;7.03;;
21175;SDS011;10746;50.178;8.186;2022-10-18T01:49:57;13.15;;;7.38;;
21175;SDS011;10746;50.178;8.186;2022-10-18T01:52:25;13.40;;;7.78;;
21175;SDS011;10746;50.178;8.186;2022-10-18T01:54:52;20.27;;;7.85;;
21175;SDS011;10746;50.178;8.186;2022-10-18T01:57:22;17.90;;;7.50;;
21175;SDS011;10746;50.178;8.186;2022-10-18T01:59:55;13.02;;;7.40;;
21175;SDS011;10746;50.178;8.186;2022-10-18T02:02:30;12.30;;;7.20;;
21175;SDS011;10746;50.178;8.186;2022-10-18T02:05:12;13.02;;;7.60;;
21175;SDS011;10746;50.178;8.186;2022-10-18T02:07:47;14.65;;;7.28;;
21175;SDS011;10746;50.178;8.186;2022-10-18T02:10:19;13.57;;;7.15;;
21175;SDS011;10746;50.178;8.186;2022-10-18T02:12:50;15.77;;;7.45;;
21175;SDS011;10746;50.178;8.186;2022-10-18T02:15:20;12.07;;;6.88;;
21175;SDS011;10746;50.178;8.186;2022-10-18T02:17:52;19.67;;;7.80;;
21175;SDS011;10746;50.178;8.186;2022-10-18T02:20:22;13.38;;;8.15;;
21175;SDS011;10746;50.178;8.186;2022-10-18T02:22:53;19.60;;;8.38;;
21175;SDS011;10746;50.178;8.186;2022-10-18T02:25:22;13.98;;;8.32;;
21175;SDS011;10746;50.178;8.186;2022-10-18T02:27:50;22.42;;;9.07;;
21175;SDS011;10746;50.178;8.186;2022-10-18T02:30:18;19.38;;;9.10;;
21175;SDS011;10746;50.178;8.186;2022-10-18T02:32:48;5.25;;;3.78;;
21175;SDS011;10746;50.178;8.186;2022-10-18T02:35:19;5.35;;;3.00;;
21175;SDS011;10746;50.178;8.186;2022-10-18T02:37:51;6.57;;;2.30;;
21175;SDS011;10746;50.178;8.186;2022-10-18T02:40:21;4.40;;;2.20;;
21175;SDS011;10746;50.178;8.186;2022-10-18T02:42:48;5.05;;;2.30;;
21175;SDS011;10746;50.178;8.186;2022-10-18T02:45:19;5.20;;;2.25;;
21175;SDS011;10746;50.178;8.186;2022-10-18T02:47:46;10.88;;;2.38;;
21175;SDS011;10746;50.178;8.186;2022-10-18T02:50:13;2.30;;;1.90;;
21175;SDS011;10746;50.178;8.186;2022-10-18T02:52:41;6.03;;;1.90;;
21175;SDS011;10746;50.178;8.186;2022-10-18T02:55:08;3.78;;;2.08;;
21175;SDS011;10746;50.178;8.186;2022-10-18T02:57:35;3.28;;;1.80;;
21175;SDS011;10746;50.178;8.186;2022-10-18T03:00:02;2.05;;;1.85;;
21175;SDS011;10746;50.178;8.186;2022-10-18T03:02:30;3.45;;;2.10;;
21175;SDS011;10746;50.178;8.186;2022-10-18T03:04:57;3.97;;;2.20;;
21175;SDS011;10746;50.178;8.186;2022-10-18T03:07:23;2.00;;;1.90;;
21175;SDS011;10746;50.178;8.186;2022-10-18T03:09:52;2.50;;;2.30;;
21175;SDS011;10746;50.178;8.186;2022-10-18T03:12:18;3.15;;;2.60;;
21175;SDS011;10746;50.178;8.186;2022-10-18T03:14:45;2.50;;;2.30;;
21175;SDS011;10746;50.178;8.186;2022-10-18T03:17:12;4.30;;;2.40;;
21175;SDS011;10746;50.178;8.186;2022-10-18T03:19:39;3.03;;;2.45;;
21175;SDS011;10746;50.178;8.186;2022-10-18T03:22:05;4.18;;;2.65;;
21175;SDS011;10746;50.178;8.186;2022-10-18T03:24:32;2.83;;;2.60;;
21175;SDS011;10746;50.178;8.186;2022-10-18T03:27:00;2.50;;;2.30;;
21175;SDS011;10746;50.178;8.186;2022-10-18T03:29:27;3.05;;;2.42;;
21175;SDS011;10746;50.178;8.186;2022-10-18T03:31:54;3.85;;;2.22;;
21175;SDS011;10746;50.178;8.186;2022-10-18T03:34:21;4.93;;;2.40;;
21175;SDS011;10746;50.178;8.186;2022-10-18T03:36:48;4.38;;;2.35;;
21175;SDS011;10746;50.178;8.186;2022-10-18T03:39:14;2.10;;;2.00;;
21175;SDS011;10746;50.178;8.186;2022-10-18T03:41:41;3.67;;;2.05;;
21175;SDS011;10746;50.178;8.186;2022-10-18T03:44:09;5.20;;;2.67;;
21175;SDS011;10746;50.178;8.186;2022-10-18T03:46:36;2.72;;;2.53;;
21175;SDS011;10746;50.178;8.186;2022-10-18T03:49:03;3.15;;;2.22;;
21175;SDS011;10746;50.178;8.186;2022-10-18T03:51:29;5.50;;;2.70;;
21175;SDS011;10746;50.178;8.186;2022-10-18T03:53:56;5.07;;;2.70;;
21175;SDS011;10746;50.178;8.186;2022-10-18T03:56:23;3.80;;;2.55;;
21175;SDS011;10746;50.178;8.186;2022-10-18T03:58:50;7.88;;;2.95;;
21175;SDS011;10746;50.178;8.186;2022-10-18T04:01:18;2.80;;;2.60;;
21175;SDS011;10746;50.178;8.186;2022-10-18T04:03:44;2.65;;;2.45;;
21175;SDS011;10746;50.178;8.186;2022-10-18T04:06:11;3.60;;;2.42;;
21175;SDS011;10746;50.178;8.186;2022-10-18T04:08:38;2.58;;;2.28;;
21175;SDS011;10746;50.178;8.186;2022-10-18T04:11:05;8.02;;;3.28;;
21175;SDS011;10746;50.178;8.186;2022-10-18T04:13:33;3.72;;;2.92;;
21175;SDS011;10746;50.178;8.186;2022-10-18T04:16:00;4.78;;;2.80;;
21175;SDS011;10746;50.178;8.186;2022-10-18T04:18:29;5.03;;;2.90;;
21175;SDS011;10746;50.178;8.186;2022-10-18T04:20:55;4.07;;;2.75;;
21175;SDS011;10746;50.178;8.186;2022-10-18T04:23:22;5.20;;;2.85;;
21175;SDS011;10746;50.178;8.186;2022-10-18T04:25:49;3.17;;;2.70;;
21175;SDS011;10746;50.178;8.186;2022-10-18T04:28:16;4.70;;;3.05;;
21175;SDS011;10746;50.178;8.186;2022-10-18T04:30:43;4.07;;;2.25;;
21175;SDS011;10746;50.178;8.186;2022-10-18T04:33:14;3.80;;;2.38;;
21175;SDS011;10746;50.178;8.186;2022-10-18T04:35:43;2.78;;;2.20;;
21175;SDS011;10746;50.178;8.186;2022-10-18T04:38:10;2.20;;;2.00;;
21175;SDS011;10746;50.178;8.186;2022-10-18T04:40:38;2.80;;;2.10;;
21175;SDS011;10746;50.178;8.186;2022-10-18T04:43:05;3.90;;;2.47;;
21175;SDS011;10746;50.178;8.186;2022-10-18T04:45:31;2.78;;;2.58;;
21175;SDS011;10746;50.178;8.186;2022-10-18T04:47:58;2.63;;;2.42;;
21175;SDS011;10746;50.178;8.186;2022-10-18T04:50:25;3.30;;;2.65;;
21175;SDS011;10746;50.178;8.186;2022-10-18T04:52:53;4.22;;;2.67;;
21175;SDS011;10746;50.178;8.186;2022-10-18T04:55:20;4.75;;;2.65;;
21175;SDS011;10746;50.178;8.186;2022-10-18T04:57:47;19.83;;;3.60;;
21175;SDS011;10746;50.178;8.186;2022-10-18T05:00:14;2.80;;;2.53;;
21175;SDS011;10746;50.178;8.186;2022-10-18T05:02:41;49.90;;;4.60;;
21175;SDS011;10746;50.178;8.186;2022-10-18T05:05:07;3.22;;;3.00;;
21175;SDS011;10746;50.178;8.186;2022-10-18T05:07:34;3.42;;;2.75;;
21175;SDS011;10746;50.178;8.186;2022-10-18T05:10:03;3.63;;;3.05;;
21175;SDS011;10746;50.178;8.186;2022-10-18T05:12:30;3.08;;;2.78;;
21175;SDS011;10746;50.178;8.186;2022-10-18T05:14:57;3.38;;;3.03;;
21175;SDS011;10746;50.178;8.186;2022-10-18T05:17:24;3.97;;;2.70;;
21175;SDS011;10746;50.178;8.186;2022-10-18T05:19:50;6.20;;;3.00;;
21175;SDS011;10746;50.178;8.186;2022-10-18T05:22:17;4.72;;;2.65;;
21175;SDS011;10746;50.178;8.186;2022-10-18T05:24:44;3.33;;;3.00;;
21175;SDS011;10746;50.178;8.186;2022-10-18T05:27:12;6.95;;;3.00;;
21175;SDS011;10746;50.178;8.186;2022-10-18T05:29:38;6.88;;;3.38;;
21175;SDS011;10746;50.178;8.186;2022-10-18T05:32:05;3.55;;;3.15;;
21175;SDS011;10746;50.178;8.186;2022-10-18T05:34:32;3.58;;;3.20;;
21175;SDS011;10746;50.178;8.186;2022-10-18T05:36:59;5.82;;;3.22;;
21175;SDS011;10746;50.178;8.186;2022-10-18T05:39:25;3.67;;;3.28;;
21175;SDS011;10746;50.178;8.186;2022-10-18T05:41:52;10.30;;;3.80;;
21175;SDS011;10746;50.178;8.186;2022-10-18T05:44:20;3.30;;;2.90;;
21175;SDS011;10746;50.178;8.186;2022-10-18T05:46:47;3.55;;;2.80;;
21175;SDS011;10746;50.178;8.186;2022-10-18T05:49:14;6.25;;;3.38;;
21175;SDS011;10746;50.178;8.186;2022-10-18T05:51:41;53.42;;;5.57;;
21175;SDS011;10746;50.178;8.186;2022-10-18T05:54:08;16.48;;;4.00;;
21175;SDS011;10746;50.178;8.186;2022-10-18T05:56:36;16.25;;;3.55;;
21175;SDS011;10746;50.178;8.186;2022-10-18T05:59:03;2.85;;;2.42;;
21175;SDS011;10746;50.178;8.186;2022-10-18T06:01:35;3.55;;;2.50;;
21175;SDS011;10746;50.178;8.186;2022-10-18T06:04:02;37.28;;;3.90;;
21175;SDS011;10746;50.178;8.186;2022-10-18T06:06:29;83.35;;;5.65;;
21175;SDS011;10746;50.178;8.186;2022-10-18T06:08:57;83.18;;;6.47;;
21175;SDS011;10746;50.178;8.186;2022-10-18T06:11:24;9.75;;;3.50;;
21175;SDS011;10746;50.178;8.186;2022-10-18T06:13:51;3.72;;;3.28;;
21175;SDS011;10746;50.178;8.186;2022-10-18T06:16:19;16.65;;;4.18;;
21175;SDS011;10746;50.178;8.186;2022-10-18T06:18:48;192.80;;;8.45;;
21175;SDS011;10746;50.178;8.186;2022-10-18T06:21:16;67.95;;;7.05;;
21175;SDS011;10746;50.178;8.186;2022-10-18T06:23:46;181.63;;;9.27;;
21175;SDS011;10746;50.178;8.186;2022-10-18T06:26:13;75.38;;;6.90;;
21175;SDS011;10746;50.178;8.186;2022-10-18T06:28:40;26.08;;;5.47;;
21175;SDS011;10746;50.178;8.186;2022-10-18T06:31:07;52.13;;;6.20;;
21175;SDS011;10746;50.178;8.186;2022-10-18T06:33:35;38.50;;;5.88;;
21175;SDS011;10746;50.178;8.186;2022-10-18T06:36:05;69.43;;;7.32;;
21175;SDS011;10746;50.178;8.186;2022-10-18T06:38:33;33.13;;;5.13;;
21175;SDS011;10746;50.178;8.186;2022-10-18T06:41:00;23.95;;;4.88;;
21175;SDS011;10746;50.178;8.186;2022-10-18T06:43:28;4.43;;;3.80;;
21175;SDS011;10746;50.178;8.186;2022-10-18T06:45:55;6.40;;;3.25;;
21175;SDS011;10746;50.178;8.186;2022-10-18T06:48:22;7.28;;;3.83;;
21175;SDS011;10746;50.178;8.186;2022-10-18T06:50:50;4.22;;;3.80;;
21175;SDS011;10746;50.178;8.186;2022-10-18T06:53:19;16.38;;;3.78;;
21175;SDS011;10746;50.178;8.186;2022-10-18T06:55:46;5.55;;;3.63;;
21175;SDS011;10746;50.178;8.186;2022-10-18T06:58:12;7.22;;;3.83;;
21175;SDS011;10746;50.178;8.186;2022-10-18T07:00:39;4.75;;;3.45;;
21175;SDS011;10746;50.178;8.186;2022-10-18T07:03:06;4.88;;;3.65;;
21175;SDS011;10746;50.178;8.186;2022-10-18T07:05:33;3.60;;;3.30;;
21175;SDS011;10746;50.178;8.186;2022-10-18T07:08:00;4.40;;;3.83;;
21175;SDS011;10746;50.178;8.186;2022-10-18T07:10:28;4.95;;;3.90;;
21175;SDS011;10746;50.178;8.186;2022-10-18T07:12:55;4.43;;;3.38;;
21175;SDS011;10746;50.178;8.186;2022-10-18T07:15:21;3.88;;;3.47;;
21175;SDS011;10746;50.178;8.186;2022-10-18T07:17:48;4.88;;;3.20;;
21175;SDS011;10746;50.178;8.186;2022-10-18T07:20:15;8.85;;;3.40;;
21175;SDS011;10746;50.178;8.186;2022-10-18T07:22:42;4.35;;;3.28;;
21175;SDS011;10746;50.178;8.186;2022-10-18T07:25:09;3.53;;;2.90;;
21175;SDS011;10746;50.178;8.186;2022-10-18T07:27:37;3.03;;;2.75;;
21175;SDS011;10746;50.178;8.186;2022-10-18T07:30:05;3.17;;;2.88;;
21175;SDS011;10746;50.178;8.186;2022-10-18T07:32:36;3.17;;;2.20;;
21175;SDS011;10746;50.178;8.186;2022-10-18T07:35:03;2.30;;;2.20;;
21175;SDS011;10746;50.178;8.186;2022-10-18T07:37:30;1.95;;;1.67;;
21175;SDS011;10746;50.178;8.186;2022-10-18T07:39:57;2.58;;;1.90;;
21175;SDS011;10746;50.178;8.186;2022-10-18T07:42:24;2.35;;;1.80;;
21175;SDS011;10746;50.178;8.186;2022-10-18T07:44:52;2.65;;;1.40;;
21175;SDS011;10746;50.178;8.186;2022-10-18T07:47:19;4.22;;;1.50;;
21175;SDS011;10746;50.178;8.186;2022-10-18T07:49:46;1.45;;;1.15;;
21175;SDS011;10746;50.178;8.186;2022-10-18T07:52:13;1.08;;;1.08;;
21175;SDS011;10746;50.178;8.186;2022-10-18T07:54:39;1.85;;;1.45;;
21175;SDS011;10746;50.178;8.186;2022-10-18T07:57:06;1.20;;;1.10;;
21175;SDS011;10746;50.178;8.186;2022-10-18T07:59:33;1.00;;;1.00;;
21175;SDS011;10746;50.178;8.186;2022-10-18T08:02:01;1.50;;;1.15;;
21175;SDS011;10746;50.178;8.186;2022-10-18T08:04:27;3.03;;;1.20;;
21175;SDS011;10746;50.178;8.186;2022-10-18T08:06:54;1.45;;;1.38;;
21175;SDS011;10746;50.178;8.186;2022-10-18T08:09:21;1.17;;;1.17;;
21175;SDS011;10746;50.178;8.186;2022-10-18T08:11:47;0.90;;;0.90;;
21175;SDS011;10746;50.178;8.186;2022-10-18T08:14:14;3.00;;;1.05;;
21175;SDS011;10746;50.178;8.186;2022-10-18T08:16:41;1.00;;;1.00;;
21175;SDS011;10746;50.178;8.186;2022-10-18T08:19:09;1.10;;;1.10;;
21175;SDS011;10746;50.178;8.186;2022-10-18T08:21:35;1.40;;;0.90;;
21175;SDS011;10746;50.178;8.186;2022-10-18T08:24:02;1.20;;;0.98;;
21175;SDS011;10746;50.178;8.186;2022-10-18T08:26:30;1.58;;;0.90;;
21175;SDS011;10746;50.178;8.186;2022-10-18T08:28:56;1.00;;;0.93;;
21175;SDS011;10746;50.178;8.186;2022-10-18T08:31:23;1.10;;;1.05;;
21175;SDS011;10746;50.178;8.186;2022-10-18T08:33:50;2.75;;;1.20;;
21175;SDS011;10746;50.178;8.186;2022-10-18T08:36:18;1.33;;;1.23;;
21175;SDS011;10746;50.178;8.186;2022-10-18T08:38:45;2.17;;;1.10;;
21175;SDS011;10746;50.178;8.186;2022-10-18T08:41:17;1.00;;;1.00;;
21175;SDS011;10746;50.178;8.186;2022-10-18T08:44:10;1.60;;;1.50;;
21175;SDS011;10746;50.178;8.186;2022-10-18T08:46:43;1.25;;;1.25;;
21175;SDS011;10746;50.178;8.186;2022-10-18T08:49:14;2.20;;;1.15;;
21175;SDS011;10746;50.178;8.186;2022-10-18T08:51:51;1.10;;;1.10;;
21175;SDS011;10746;50.178;8.186;2022-10-18T08:54:21;3.97;;;1.10;;
21175;SDS011;10746;50.178;8.186;2022-10-18T08:56:55;1.65;;;1.55;;
21175;SDS011;10746;50.178;8.186;2022-10-18T08:59:24;4.57;;;1.30;;
21175;SDS011;10746;50.178;8.186;2022-10-18T09:01:55;2.00;;;1.20;;
21175;SDS011;10746;50.178;8.186;2022-10-18T09:04:33;3.72;;;1.40;;
21175;SDS011;10746;50.178;8.186;2022-10-18T09:07:25;1.27;;;1.20;;
21175;SDS011;10746;50.178;8.186;2022-10-18T09:10:12;2.60;;;1.20;;
21175;SDS011;10746;50.178;8.186;2022-10-18T09:12:50;2.83;;;1.15;;
21175;SDS011;10746;50.178;8.186;2022-10-18T09:15:30;1.40;;;1.33;;
21175;SDS011;10746;50.178;8.186;2022-10-18T09:18:08;2.60;;;1.17;;
21175;SDS011;10746;50.178;8.186;2022-10-18T09:20:48;2.92;;;2.38;;
21175;SDS011;10746;50.178;8.186;2022-10-18T09:23:20;1.35;;;1.25;;
21175;SDS011;10746;50.178;8.186;2022-10-18T09:25:51;2.05;;;1.85;;
21175;SDS011;10746;50.178;8.186;2022-10-18T09:28:27;4.15;;;3.03;;
21175;SDS011;10746;50.178;8.186;2022-10-18T09:31:02;9.20;;;6.28;;
21175;SDS011;10746;50.178;8.186;2022-10-18T09:33:44;1.40;;;1.30;;
21175;SDS011;10746;50.178;8.186;2022-10-18T09:36:16;2.05;;;1.17;;
21175;SDS011;10746;50.178;8.186;2022-10-18T09:38:47;1.52;;;1.42;;
21175;SDS011;10746;50.178;8.186;2022-10-18T09:41:18;1.05;;;1.05;;
21175;SDS011;10746;50.178;8.186;2022-10-18T09:43:50;3.60;;;1.48;;
21175;SDS011;10746;50.178;8.186;2022-10-18T09:46:21;1.48;;;1.30;;
21175;SDS011;10746;50.178;8.186;2022-10-18T09:48:52;1.35;;;1.25;;
21175;SDS011;10746;50.178;8.186;2022-10-18T09:51:24;1.45;;;1.40;;
21175;SDS011;10746;50.178;8.186;2022-10-18T09:53:59;1.25;;;1.20;;
21175;SDS011;10746;50.178;8.186;2022-10-18T09:56:33;2.67;;;1.13;;
21175;SDS011;10746;50.178;8.186;2022-10-18T09:59:04;2.17;;;1.00;;
21175;SDS011;10746;50.178;8.186;2022-10-18T10:01:35;2.17;;;0.98;;
21175;SDS011;10746;50.178;8.186;2022-10-18T10:04:02;1.80;;;0.90;;
21175;SDS011;10746;50.178;8.186;2022-10-18T10:06:30;2.60;;;0.90;;
21175;SDS011;10746;50.178;8.186;2022-10-18T10:09:03;3.33;;;1.10;;
21175;SDS011;10746;50.178;8.186;2022-10-18T10:11:33;1.95;;;1.05;;
21175;SDS011;10746;50.178;8.186;2022-10-18T10:14:09;2.38;;;1.02;;
21175;SDS011;10746;50.178;8.186;2022-10-18T10:16:42;3.50;;;1.00;;
21175;SDS011;10746;50.178;8.186;2022-10-18T10:19:19;1.45;;;1.05;;
21175;SDS011;10746;50.178;8.186;2022-10-18T10:21:52;5.15;;;1.00;;
21175;SDS011;10746;50.178;8.186;2022-10-18T10:24:24;0.95;;;0.95;;
21175;SDS011;10746;50.178;8.186;2022-10-18T10:26:59;2.35;;;1.00;;
21175;SDS011;10746;50.178;8.186;2022-10-18T10:32:18;1.08;;;1.08;;
21175;SDS011;10746;50.178;8.186;2022-10-18T10:34:46;1.00;;;1.00;;
21175;SDS011;10746;50.178;8.186;2022-10-18T10:37:24;2.83;;;1.00;;
21175;SDS011;10746;50.178;8.186;2022-10-18T10:45:51;1.30;;;1.20;;
21175;SDS011;10746;50.178;8.186;2022-10-18T10:48:22;2.00;;;1.25;;
21175;SDS011;10746;50.178;8.186;2022-10-18T10:50:51;1.35;;;1.33;;
21175;SDS011;10746;50.178;8.186;2022-10-18T10:56:17;2.97;;;1.50;;
21175;SDS011;10746;50.178;8.186;2022-10-18T10:58:47;1.65;;;1.55;;
21175;SDS011;10746;50.178;8.186;2022-10-18T11:01:16;2.72;;;1.45;;
21175;SDS011;10746;50.178;8.186;2022-10-18T11:03:49;1.25;;;1.20;;
21175;SDS011;10746;50.178;8.186;2022-10-18T11:09:20;2.08;;;1.00;;
21175;SDS011;10746;50.178;8.186;2022-10-18T11:11:55;0.93;;;0.90;;
21175;SDS011;10746;50.178;8.186;2022-10-18T11:14:32;2.05;;;0.90;;
21175;SDS011;10746;50.178;8.186;2022-10-18T11:17:09;2.15;;;0.93;;
21175;SDS011;10746;50.178;8.186;2022-10-18T11:19:49;1.88;;;1.25;;
21175;SDS011;10746;50.178;8.186;2022-10-18T11:22:28;1.50;;;1.30;;
21175;SDS011;10746;50.178;8.186;2022-10-18T11:25:00;4.40;;;1.38;;
21175;SDS011;10746;50.178;8.186;2022-10-18T11:27:30;2.90;;;1.48;;
21175;SDS011;10746;50.178;8.186;2022-10-18T11:33:01;4.32;;;1.40;;
21175;SDS011;10746;50.178;8.186;2022-10-18T11:35:38;1.60;;;1.50;;
21175;SDS011;10746;50.178;8.186;2022-10-18T11:38:15;3.40;;;1.52;;
21175;SDS011;10746;50.178;8.186;2022-10-18T11:41:01;1.27;;;1.17;;
21175;SDS011;10746;50.178;8.186;2022-10-18T11:43:45;1.05;;;0.95;;
21175;SDS011;10746;50.178;8.186;2022-10-18T11:46:19;1.23;;;1.00;;
21175;SDS011;10746;50.178;8.186;2022-10-18T11:51:44;3.50;;;1.05;;
21175;SDS011;10746;50.178;8.186;2022-10-18T11:54:25;2.75;;;1.10;;
21175;SDS011;10746;50.178;8.186;2022-10-18T11:57:04;1.38;;;1.08;;
21175;SDS011;10746;50.178;8.186;2022-10-18T11:59:41;4.47;;;1.10;;
21175;SDS011;10746;50.178;8.186;2022-10-18T12:02:35;1.42;;;1.02;;
21175;SDS011;10746;50.178;8.186;2022-10-18T12:05:19;2.35;;;0.95;;
21175;SDS011;10746;50.178;8.186;2022-10-18T12:07:49;1.17;;;1.08;;
21175;SDS011;10746;50.178;8.186;2022-10-18T12:10:20;1.00;;;1.00;;
21175;SDS011;10746;50.178;8.186;2022-10-18T12:12:49;2.35;;;1.20;;
21175;SDS011;10746;50.178;8.186;2022-10-18T12:15:21;3.60;;;1.30;;
21175;SDS011;10746;50.178;8.186;2022-10-18T12:17:50;1.85;;;1.20;;
21175;SDS011;10746;50.178;8.186;2022-10-18T12:20:20;1.10;;;1.10;;
21175;SDS011;10746;50.178;8.186;2022-10-18T12:22:53;1.33;;;1.10;;
21175;SDS011;10746;50.178;8.186;2022-10-18T12:25:25;5.05;;;1.13;;
21175;SDS011;10746;50.178;8.186;2022-10-18T12:27:55;1.00;;;1.00;;
21175;SDS011;10746;50.178;8.186;2022-10-18T12:30:29;1.25;;;1.08;;
21175;SDS011;10746;50.178;8.186;2022-10-18T12:33:04;2.55;;;1.10;;
21175;SDS011;10746;50.178;8.186;2022-10-18T12:35:38;1.30;;;1.30;;
21175;SDS011;10746;50.178;8.186;2022-10-18T12:38:16;2.55;;;1.50;;
21175;SDS011;10746;50.178;8.186;2022-10-18T12:40:47;1.35;;;1.30;;
21175;SDS011;10746;50.178;8.186;2022-10-18T12:43:16;2.83;;;1.30;;
21175;SDS011;10746;50.178;8.186;2022-10-18T12:45:48;2.78;;;1.08;;
21175;SDS011;10746;50.178;8.186;2022-10-18T12:48:28;4.30;;;1.30;;
21175;SDS011;10746;50.178;8.186;2022-10-18T12:50:58;1.15;;;1.15;;
21175;SDS011;10746;50.178;8.186;2022-10-18T12:53:28;1.77;;;1.35;;
21175;SDS011;10746;50.178;8.186;2022-10-18T12:56:31;1.58;;;1.17;;
21175;SDS011;10746;50.178;8.186;2022-10-18T13:02:24;3.40;;;1.50;;
21175;SDS011;10746;50.178;8.186;2022-10-18T13:04:53;9.50;;;1.25;;
21175;SDS011;10746;50.178;8.186;2022-10-18T13:07:21;1.02;;;1.00;;
21175;SDS011;10746;50.178;8.186;2022-10-18T13:13:08;6.70;;;1.15;;
21175;SDS011;10746;50.178;8.186;2022-10-18T13:15:53;3.83;;;1.10;;
21175;SDS011;10746;50.178;8.186;2022-10-18T13:18:30;1.25;;;1.13;;
21175;SDS011;10746;50.178;8.186;2022-10-18T13:21:09;3.03;;;0.93;;
21175;SDS011;10746;50.178;8.186;2022-10-18T13:23:42;1.55;;;0.80;;
21175;SDS011;10746;50.178;8.186;2022-10-18T13:26:28;6.50;;;1.00;;
21175;SDS011;10746;50.178;8.186;2022-10-18T13:29:08;5.60;;;0.90;;
21175;SDS011;10746;50.178;8.186;2022-10-18T13:32:04;2.67;;;0.85;;
21175;SDS011;10746;50.178;8.186;2022-10-18T13:34:44;2.47;;;0.90;;
21175;SDS011;10746;50.178;8.186;2022-10-18T13:37:18;0.90;;;0.90;;
21175;SDS011;10746;50.178;8.186;2022-10-18T13:39:48;5.88;;;1.08;;
21175;SDS011;10746;50.178;8.186;2022-10-18T13:42:31;5.78;;;0.85;;
21175;SDS011;10746;50.178;8.186;2022-10-18T13:51:12;1.25;;;1.05;;
21175;SDS011;10746;50.178;8.186;2022-10-18T13:54:20;1.20;;;1.20;;
21175;SDS011;10746;50.178;8.186;2022-10-18T13:57:07;1.38;;;1.27;;
21175;SDS011;10746;50.178;8.186;2022-10-18T13:59:46;4.70;;;1.38;;
21175;SDS011;10746;50.178;8.186;2022-10-18T14:02:38;1.42;;;1.40;;
21175;SDS011;10746;50.178;8.186;2022-10-18T14:08:10;3.33;;;1.60;;
21175;SDS011;10746;50.178;8.186;2022-10-18T14:10:42;2.80;;;1.58;;
21175;SDS011;10746;50.178;8.186;2022-10-18T14:13:19;2.85;;;1.45;;
21175;SDS011;10746;50.178;8.186;2022-10-18T14:15:49;1.45;;;1.35;;
21175;SDS011;10746;50.178;8.186;2022-10-18T14:18:20;2.17;;;1.70;;
21175;SDS011;10746;50.178;8.186;2022-10-18T14:20:52;3.83;;;1.60;;
21175;SDS011;10746;50.178;8.186;2022-10-18T14:23:25;4.55;;;1.80;;
21175;SDS011;10746;50.178;8.186;2022-10-18T14:26:04;1.95;;;1.85;;
21175;SDS011;10746;50.178;8.186;2022-10-18T14:28:32;2.35;;;1.90;;
21175;SDS011;10746;50.178;8.186;2022-10-18T14:31:00;2.10;;;1.90;;
21175;SDS011;10746;50.178;8.186;2022-10-18T14:33:31;2.22;;;1.80;;
21175;SDS011;10746;50.178;8.186;2022-10-18T14:36:01;5.70;;;2.20;;
21175;SDS011;10746;50.178;8.186;2022-10-18T14:38:33;5.00;;;1.90;;
21175;SDS011;10746;50.178;8.186;2022-10-18T14:41:05;2.80;;;1.92;;
21175;SDS011;10746;50.178;8.186;2022-10-18T14:43:38;2.75;;;1.90;;
21175;SDS011;10746;50.178;8.186;2022-10-18T14:46:09;3.95;;;1.65;;
21175;SDS011;10746;50.178;8.186;2022-10-18T14:48:49;3.53;;;1.90;;
21175;SDS011;10746;50.178;8.186;2022-10-18T14:51:17;2.88;;;1.80;;
21175;SDS011;10746;50.178;8.186;2022-10-18T14:53:46;3.65;;;2.00;;
21175;SDS011;10746;50.178;8.186;2022-10-18T14:56:18;1.83;;;1.70;;
21175;SDS011;10746;50.178;8.186;2022-10-18T14:58:48;8.43;;;2.40;;
21175;SDS011;10746;50.178;8.186;2022-10-18T15:01:16;2.70;;;2.00;;
21175;SDS011;10746;50.178;8.186;2022-10-18T15:03:44;5.90;;;2.30;;
21175;SDS011;10746;50.178;8.186;2022-10-18T15:06:14;5.78;;;1.88;;
21175;SDS011;10746;50.178;8.186;2022-10-18T15:08:43;2.58;;;2.13;;
21175;SDS011;10746;50.178;8.186;2022-10-18T15:11:14;3.38;;;2.10;;
21175;SDS011;10746;50.178;8.186;2022-10-18T15:13:45;4.95;;;2.15;;
21175;SDS011;10746;50.178;8.186;2022-10-18T15:16:16;3.13;;;2.20;;
21175;SDS011;10746;50.178;8.186;2022-10-18T15:18:56;2.05;;;1.88;;
21175;SDS011;10746;50.178;8.186;2022-10-18T15:21:25;2.28;;;1.90;;
21175;SDS011;10746;50.178;8.186;2022-10-18T15:23:53;9.73;;;2.40;;
21175;SDS011;10746;50.178;8.186;2022-10-18T15:26:21;2.03;;;1.80;;
21175;SDS011;10746;50.178;8.186;2022-10-18T15:28:51;5.35;;;2.28;;
21175;SDS011;10746;50.178;8.186;2022-10-18T15:31:21;8.07;;;2.40;;
21175;SDS011;10746;50.178;8.186;2022-10-18T15:33:50;3.13;;;2.13;;
21175;SDS011;10746;50.178;8.186;2022-10-18T15:36:21;15.93;;;3.10;;
21175;SDS011;10746;50.178;8.186;2022-10-18T15:38:57;4.85;;;2.33;;
21175;SDS011;10746;50.178;8.186;2022-10-18T15:41:37;5.35;;;2.50;;
21175;SDS011;10746;50.178;8.186;2022-10-18T15:44:07;2.75;;;2.55;;
21175;SDS011;10746;50.178;8.186;2022-10-18T15:46:44;8.93;;;3.70;;